createdAt,value
2023-05-11T11:52:38.650Z,3.20
2023-05-11T11:55:39.507Z,3.00
2023-05-11T11:58:40.628Z,2.80
2023-05-11T12:01:41.487Z,3.20
2023-05-11T12:04:42.636Z,3.20
2023-05-11T12:07:43.501Z,3.10
2023-05-11T12:10:44.604Z,3.40
2023-05-11T12:13:45.463Z,3.20
2023-05-11T12:16:46.622Z,3.30
2023-05-11T12:19:47.473Z,3.10
2023-05-11T12:22:48.582Z,2.80
2023-05-11T12:25:49.431Z,3.60
2023-05-11T12:28:50.524Z,3.30
2023-05-11T12:31:51.404Z,3.10
2023-05-11T12:34:52.516Z,2.90
2023-05-11T12:37:53.704Z,3.40
2023-05-11T12:40:54.364Z,3.30
2023-05-11T12:43:55.212Z,3.40
2023-05-11T12:46:56.339Z,3.10
2023-05-11T12:49:57.192Z,3.20
2023-05-11T12:52:58.358Z,3.30
2023-05-11T12:55:59.213Z,3.60
2023-05-11T12:59:00.327Z,3.50
2023-05-11T13:02:01.185Z,3.50
2023-05-11T13:05:02.286Z,3.10
2023-05-11T13:08:03.192Z,3.70
2023-05-11T13:11:04.283Z,4.00
2023-05-11T13:14:05.220Z,3.30
2023-05-11T13:17:06.312Z,3.40
2023-05-11T13:20:07.185Z,2.90
2023-05-11T13:23:08.350Z,3.20
2023-05-11T13:26:09.194Z,3.30
2023-05-11T13:29:11.449Z,2.90
2023-05-11T13:32:11.008Z,3.00
2023-05-11T13:35:12.132Z,3.20
2023-05-11T13:38:13.039Z,3.10
2023-05-11T13:41:14.155Z,3.10
2023-05-11T13:44:15.013Z,3.30
2023-05-11T13:47:16.353Z,3.20
2023-05-11T13:50:16.865Z,3.30
2023-05-11T13:53:18.039Z,3.10
2023-05-11T13:56:18.919Z,2.90
2023-05-11T13:59:20.038Z,3.00
2023-05-11T14:02:20.987Z,3.00
2023-05-11T14:05:22.318Z,2.70
2023-05-11T14:08:22.886Z,3.30
2023-05-11T14:11:23.993Z,2.90
2023-05-11T14:14:24.877Z,3.00
2023-05-11T14:17:26.089Z,2.90
2023-05-11T14:20:26.545Z,2.90
2023-05-11T14:23:27.682Z,2.90
2023-05-11T14:26:28.540Z,3.10
2023-05-11T14:29:29.750Z,2.90
2023-05-11T14:32:30.638Z,2.90
2023-05-11T14:35:31.771Z,2.80
2023-05-11T14:38:32.699Z,3.00
2023-05-11T14:41:33.843Z,2.40
2023-05-11T14:44:34.764Z,2.60
2023-05-11T14:47:35.956Z,2.60
2023-05-11T14:50:36.820Z,2.80
2023-05-11T14:53:38.012Z,2.40
2023-05-11T14:56:38.872Z,1.90
2023-05-11T14:59:51.251Z,1.80
2023-05-11T15:02:41.573Z,1.50
2023-05-11T15:05:41.707Z,1.80
2023-05-11T15:08:42.640Z,1.70
2023-05-11T15:11:43.782Z,1.80
2023-05-11T15:14:44.621Z,2.00
2023-05-11T15:17:45.793Z,1.90
2023-05-11T15:20:46.707Z,2.30
2023-05-11T15:23:47.426Z,2.10
2023-05-11T15:26:48.309Z,2.20
2023-05-11T15:29:49.408Z,2.20
2023-05-11T15:32:50.338Z,2.20
2023-05-11T15:35:51.476Z,2.40
2023-05-11T15:38:52.354Z,2.40
2023-05-11T15:41:53.538Z,1.90
2023-05-11T15:44:54.420Z,2.10
2023-05-11T15:47:55.580Z,2.40
2023-05-11T15:54:52.684Z,2.80
2023-05-11T16:05:23.730Z,3.20
2023-05-11T16:08:24.840Z,3.40
2023-05-11T16:11:25.752Z,3.50
2023-05-11T16:14:26.880Z,3.40
2023-05-11T16:17:27.836Z,3.10
2023-05-11T16:20:28.954Z,3.10
2023-05-11T16:23:29.821Z,3.00
2023-05-11T16:26:31.008Z,2.30
2023-05-11T16:29:31.849Z,2.60
2023-05-11T16:32:33.043Z,2.20
2023-05-11T16:35:33.853Z,1.50
2023-05-11T16:38:35.033Z,1.60
2023-05-11T16:41:35.900Z,1.70
2023-05-11T16:44:36.993Z,1.60
2023-05-11T16:47:37.877Z,1.70
2023-05-11T16:50:39.036Z,1.80
2023-05-11T16:53:39.898Z,2.00
2023-05-11T16:56:41.091Z,1.80
2023-05-11T16:59:41.934Z,1.80
2023-05-11T17:02:43.179Z,1.90
2023-05-11T17:05:43.586Z,1.90
2023-05-11T17:08:44.720Z,1.80
2023-05-11T17:11:45.676Z,1.60
2023-05-11T17:14:46.791Z,1.60
2023-05-11T17:17:47.723Z,1.80
2023-05-11T17:20:48.877Z,1.50
2023-05-11T17:23:49.746Z,1.70
2023-05-11T17:26:50.943Z,1.90
2023-05-11T17:29:51.824Z,2.00
2023-05-11T17:32:53.132Z,2.20
2023-05-11T17:35:53.643Z,2.60
2023-05-11T17:38:54.810Z,2.00
2023-05-11T17:41:55.696Z,2.00
2023-05-11T17:44:56.798Z,2.00
2023-05-11T17:47:57.660Z,2.10
2023-05-11T17:50:58.813Z,1.90
2023-05-11T17:53:59.668Z,2.00
2023-05-11T17:57:00.833Z,2.30
2023-05-11T18:00:01.664Z,2.10
2023-05-11T18:03:02.869Z,2.20
2023-05-11T18:06:03.262Z,2.20
2023-05-11T18:09:04.396Z,2.20
2023-05-11T18:12:05.290Z,2.30
2023-05-11T18:15:06.394Z,2.40
2023-05-11T18:18:07.331Z,2.40
2023-05-11T18:21:08.455Z,2.30
2023-05-11T18:24:09.329Z,2.40
2023-05-11T18:27:10.485Z,2.60
2023-05-11T18:30:19.042Z,2.70
2023-05-11T18:33:19.545Z,2.40
2023-05-11T18:36:20.614Z,2.60
2023-05-11T18:39:21.768Z,2.30
2023-05-11T18:42:15.510Z,2.80
2023-05-11T18:45:17.367Z,2.60
2023-05-11T18:48:16.982Z,2.90
2023-05-11T18:51:17.646Z,3.00
2023-05-11T18:54:18.504Z,2.70
2023-05-11T18:57:19.285Z,2.50
2023-05-11T19:00:20.449Z,2.70
2023-05-11T19:03:21.526Z,3.30
2023-05-11T19:06:21.947Z,3.10
2023-05-11T19:09:23.076Z,3.20
2023-05-11T19:12:23.952Z,2.20
2023-05-11T19:15:25.117Z,2.10
2023-05-11T19:18:25.991Z,2.00
2023-05-11T19:21:27.088Z,2.40
2023-05-11T19:24:27.974Z,2.50
2023-05-11T19:27:29.135Z,3.20
2023-05-11T19:30:30.029Z,3.20
2023-05-11T19:33:31.140Z,3.30
2023-05-11T19:36:32.006Z,3.50
2023-05-11T19:39:33.177Z,3.30
2023-05-11T19:42:39.239Z,3.10
2023-05-11T19:45:35.552Z,3.40
2023-05-11T19:48:35.664Z,3.70
2023-05-11T19:51:36.589Z,3.30
2023-05-11T19:54:37.708Z,3.80
2023-05-11T19:57:38.629Z,3.50
2023-05-11T20:00:39.701Z,3.60
2023-05-11T20:03:40.765Z,3.10
2023-05-11T20:06:41.486Z,3.60
2023-05-11T20:09:42.353Z,3.00
2023-05-11T20:12:43.518Z,3.40
2023-05-11T20:15:44.518Z,3.90
2023-05-11T20:18:45.234Z,3.30
2023-05-11T20:21:46.119Z,3.50
2023-05-11T20:24:47.245Z,3.60
2023-05-11T20:27:48.130Z,3.90
2023-05-11T20:30:49.273Z,4.10
2023-05-11T20:36:50.960Z,3.30
2023-05-11T20:39:51.797Z,3.30
2023-05-11T20:42:52.446Z,3.60
2023-05-11T20:45:53.319Z,3.20
2023-05-11T20:48:54.434Z,3.30
2023-05-11T20:51:55.305Z,3.30
2023-05-11T20:54:56.423Z,3.20
2023-05-11T20:57:57.323Z,3.60
2023-05-11T21:00:58.501Z,3.60
2023-05-11T21:03:58.909Z,3.60
2023-05-11T21:07:00.051Z,4.10
2023-05-11T21:10:08.390Z,4.10
2023-05-11T21:13:09.504Z,3.90
2023-05-11T21:16:10.589Z,3.70
2023-05-11T21:19:11.651Z,3.80
2023-05-11T21:22:05.250Z,3.70
